Time;durP1;ratioP1;P1;durP2;ratioP2;P2;SDS_P1;SDS_P2;PMS_P1;PMS_P2;Temp;Humidity;BMP_temperature;BMP_pressure;BME280_temperature;BME280_humidity;BME280_pressure;Samples;Min_cycle;Max_cycle;Signal;HPM_P1;HPM_P2
2023/05/31 00:01:23;;;;;;;5.30;2.83;;;;;;;;;;5052350;28;20041;-72
2023/05/31 00:03:50;;;;;;;5.18;2.55;;;;;;;;;;5052460;28;20422;-72
2023/05/31 00:06:16;;;;;;;6.20;2.95;;;;;;;;;;5052840;28;20056;-72
2023/05/31 00:08:44;;;;;;;7.70;2.95;;;;;;;;;;5052338;28;20048;-72
2023/05/31 00:11:11;;;;;;;11.75;3.88;;;;;;;;;;5052240;28;20063;-72
2023/05/31 00:13:39;;;;;;;4.65;2.80;;;;;;;;;;5051799;28;20059;-72
2023/05/31 00:16:06;;;;;;;6.18;3.17;;;;;;;;;;5052729;28;20045;-72
2023/05/31 00:18:33;;;;;;;7.00;3.17;;;;;;;;;;5052327;28;20055;-72
2023/05/31 00:20:59;;;;;;;6.03;2.85;;;;;;;;;;5052182;28;20423;-72
2023/05/31 00:23:26;;;;;;;5.57;2.88;;;;;;;;;;5052619;28;20410;-72
2023/05/31 00:25:54;;;;;;;5.65;2.70;;;;;;;;;;5051774;28;20407;-70
2023/05/31 00:28:20;;;;;;;7.20;3.30;;;;;;;;;;5052167;28;20553;-69
2023/05/31 00:30:47;;;;;;;4.38;2.88;;;;;;;;;;5051550;28;20052;-72
2023/05/31 00:33:13;;;;;;;6.38;3.22;;;;;;;;;;5052446;28;20055;-72
2023/05/31 00:35:40;;;;;;;5.50;3.08;;;;;;;;;;5051543;28;20053;-72
2023/05/31 00:38:07;;;;;;;6.72;3.15;;;;;;;;;;5052448;28;20115;-73
2023/05/31 00:40:34;;;;;;;6.13;3.50;;;;;;;;;;5051229;28;20491;-72
2023/05/31 00:43:02;;;;;;;8.57;3.17;;;;;;;;;;5052500;28;20045;-72
2023/05/31 00:45:28;;;;;;;6.15;3.00;;;;;;;;;;5052303;28;20045;-72
2023/05/31 00:47:55;;;;;;;5.55;3.25;;;;;;;;;;5052187;28;20440;-72
2023/05/31 00:50:22;;;;;;;5.30;2.78;;;;;;;;;;5051020;28;20040;-73
2023/05/31 00:52:52;;;;;;;9.23;3.22;;;;;;;;;;5052138;28;20515;-73
2023/05/31 00:55:19;;;;;;;7.78;3.38;;;;;;;;;;5051500;28;20045;-72
2023/05/31 00:57:45;;;;;;;5.03;2.83;;;;;;;;;;5050885;28;20498;-71
2023/05/31 01:00:15;;;;;;;5.45;2.95;;;;;;;;;;5051651;28;20483;-72
2023/05/31 01:02:43;;;;;;;8.23;3.17;;;;;;;;;;5051593;28;20494;-71
2023/05/31 01:05:10;;;;;;;5.70;3.05;;;;;;;;;;5051863;28;20076;-72
2023/05/31 01:07:37;;;;;;;6.97;2.70;;;;;;;;;;5051130;28;20414;-71
2023/05/31 01:10:06;;;;;;;9.82;3.08;;;;;;;;;;5050960;28;20060;-72
2023/05/31 01:12:42;;;;;;;4.82;2.60;;;;;;;;;;5049825;28;20063;-71
2023/05/31 01:15:15;;;;;;;6.47;2.95;;;;;;;;;;5051943;28;20352;-72
2023/05/31 01:17:46;;;;;;;;;;;;;;;;;;5051952;28;20506;-72
2023/05/31 01:20:17;;;;;;;5.75;2.70;;;;;;;;;;5051048;28;19920;-72
2023/05/31 01:23:14;;;;;;;6.38;2.97;;;;;;;;;;5051106;28;20201;-72
2023/05/31 01:26:05;;;;;;;7.28;3.22;;;;;;;;;;5051661;28;20056;-71
2023/05/31 01:28:36;;;;;;;7.07;3.45;;;;;;;;;;5050556;28;20041;-72
2023/05/31 01:31:05;;;;;;;7.15;3.10;;;;;;;;;;5050948;28;20139;-72
2023/05/31 01:33:33;;;;;;;5.88;3.20;;;;;;;;;;5051062;28;20045;-71
2023/05/31 01:36:00;;;;;;;7.03;3.30;;;;;;;;;;5051389;28;20707;-72
2023/05/31 01:38:27;;;;;;;9.25;3.42;;;;;;;;;;5050504;28;20045;-72
2023/05/31 01:40:55;;;;;;;5.15;3.10;;;;;;;;;;5051113;28;20056;-72
2023/05/31 01:43:22;;;;;;;7.53;3.30;;;;;;;;;;5050485;28;20087;-72
2023/05/31 01:45:51;;;;;;;6.25;3.17;;;;;;;;;;5050622;28;20049;-72
2023/05/31 01:48:18;;;;;;;9.15;3.13;;;;;;;;;;5050422;28;20072;-72
2023/05/31 01:50:45;;;;;;;5.72;3.17;;;;;;;;;;5050425;28;20274;-72
2023/05/31 01:53:12;;;;;;;6.88;3.55;;;;;;;;;;5050575;28;20041;-72
2023/05/31 01:55:39;;;;;;;6.90;3.00;;;;;;;;;;5050323;28;20049;-72
2023/05/31 01:58:06;;;;;;;5.05;3.13;;;;;;;;;;5050850;28;20445;-72
2023/05/31 02:00:33;;;;;;;4.78;3.08;;;;;;;;;;5049941;28;20045;-72
2023/05/31 02:03:01;;;;;;;6.82;3.15;;;;;;;;;;5050847;28;20045;-72
2023/05/31 02:05:27;;;;;;;7.40;3.53;;;;;;;;;;5050070;28;20052;-72
2023/05/31 02:07:54;;;;;;;8.57;3.40;;;;;;;;;;5050557;28;20063;-72
2023/05/31 02:10:21;;;;;;;5.78;3.13;;;;;;;;;;5049259;28;20045;-72
2023/05/31 02:12:50;;;;;;;6.25;3.00;;;;;;;;;;5049971;28;20144;-72
2023/05/31 02:15:19;;;;;;;7.63;2.75;;;;;;;;;;5050014;28;20045;-72
2023/05/31 02:17:46;;;;;;;6.97;3.10;;;;;;;;;;5049933;28;20041;-72
2023/05/31 02:20:15;;;;;;;7.00;3.70;;;;;;;;;;5049625;28;20144;-72
2023/05/31 02:22:41;;;;;;;6.90;3.05;;;;;;;;;;5050173;28;20047;-72
2023/05/31 02:25:09;;;;;;;6.38;3.03;;;;;;;;;;5050024;28;20483;-72
2023/05/31 02:27:36;;;;;;;5.70;3.13;;;;;;;;;;5050017;28;20522;-72
2023/05/31 02:30:04;;;;;;;8.48;3.20;;;;;;;;;;5049294;28;20041;-72
2023/05/31 02:32:31;;;;;;;4.80;2.88;;;;;;;;;;5050069;28;20546;-72
2023/05/31 02:34:57;;;;;;;6.13;2.92;;;;;;;;;;5050229;28;20051;-72
2023/05/31 02:37:25;;;;;;;5.10;2.72;;;;;;;;;;5049481;28;20057;-72
2023/05/31 02:39:53;;;;;;;5.43;2.78;;;;;;;;;;5049815;28;20048;-72
2023/05/31 02:42:20;;;;;;;6.72;3.10;;;;;;;;;;5049836;28;20045;-72
2023/05/31 02:44:46;;;;;;;6.43;3.33;;;;;;;;;;5050121;28;20049;-72
2023/05/31 02:47:13;;;;;;;6.15;2.95;;;;;;;;;;5049740;28;20041;-72
2023/05/31 02:49:39;;;;;;;8.93;3.58;;;;;;;;;;5049661;28;20052;-72
2023/05/31 02:52:07;;;;;;;5.95;2.83;;;;;;;;;;5049525;28;20048;-72
2023/05/31 02:54:35;;;;;;;6.40;3.30;;;;;;;;;;5050282;28;20060;-72
2023/05/31 02:57:01;;;;;;;6.53;3.33;;;;;;;;;;5049763;28;20052;-72
2023/05/31 02:59:28;;;;;;;5.78;3.05;;;;;;;;;;5050176;28;20049;-72
2023/05/31 03:01:54;;;;;;;5.07;3.22;;;;;;;;;;5049888;28;20091;-72
2023/05/31 03:04:21;;;;;;;9.02;3.40;;;;;;;;;;5049868;28;20049;-72
2023/05/31 03:06:47;;;;;;;5.88;3.17;;;;;;;;;;5049573;28;20063;-72
2023/05/31 03:09:16;;;;;;;7.55;3.08;;;;;;;;;;5049771;28;20048;-72
2023/05/31 03:11:44;;;;;;;6.70;3.33;;;;;;;;;;5061158;22;20177;-65
2023/05/31 03:14:11;;;;;;;7.30;3.10;;;;;;;;;;5049380;28;20049;-65
2023/05/31 03:16:37;;;;;;;6.00;3.03;;;;;;;;;;5049842;28;20052;-65
2023/05/31 03:19:04;;;;;;;7.00;3.05;;;;;;;;;;5049253;28;20041;-65
2023/05/31 03:21:30;;;;;;;7.13;3.17;;;;;;;;;;5050956;28;20045;-65
2023/05/31 03:23:57;;;;;;;5.22;3.00;;;;;;;;;;5053452;28;20052;-65
2023/05/31 03:26:24;;;;;;;4.78;3.53;;;;;;;;;;5053942;28;20048;-65
2023/05/31 03:28:52;;;;;;;4.30;2.97;;;;;;;;;;5053233;28;20044;-65
2023/05/31 03:31:19;;;;;;;6.68;3.65;;;;;;;;;;5053699;28;20045;-66
2023/05/31 03:33:45;;;;;;;7.80;3.45;;;;;;;;;;5052708;28;20053;-65
2023/05/31 03:36:12;;;;;;;9.05;3.83;;;;;;;;;;5053683;28;20088;-65
2023/05/31 03:38:39;;;;;;;4.88;3.47;;;;;;;;;;5053258;28;20045;-65
2023/05/31 03:41:05;;;;;;;8.00;4.30;;;;;;;;;;5053460;28;20486;-65
2023/05/31 03:43:43;;;;;;;4.97;3.13;;;;;;;;;;5053441;28;20045;-65
2023/05/31 03:46:10;;;;;;;7.53;3.65;;;;;;;;;;5053058;28;20047;-65
2023/05/31 03:48:37;;;;;;;9.50;3.58;;;;;;;;;;5053611;28;20045;-65
2023/05/31 03:51:04;;;;;;;8.13;3.90;;;;;;;;;;5052387;28;20048;-65
2023/05/31 03:53:30;;;;;;;7.43;3.42;;;;;;;;;;5053413;28;20052;-65
2023/05/31 03:55:57;;;;;;;7.35;3.30;;;;;;;;;;5052854;28;20041;-66
2023/05/31 03:58:23;;;;;;;7.90;3.70;;;;;;;;;;5053165;28;20047;-66
2023/05/31 04:00:50;;;;;;;7.80;3.55;;;;;;;;;;5052007;28;20059;-66
2023/05/31 04:03:18;;;;;;;8.38;3.40;;;;;;;;;;5053302;28;20490;-66
2023/05/31 04:05:45;;;;;;;6.15;3.40;;;;;;;;;;5052799;28;20410;-66
2023/05/31 04:08:12;;;;;;;8.73;4.28;;;;;;;;;;5053449;28;20048;-66
2023/05/31 04:10:38;;;;;;;6.55;3.60;;;;;;;;;;5052401;28;20041;-66
2023/05/31 04:13:05;;;;;;;6.38;3.40;;;;;;;;;;5052882;28;20148;-66
2023/05/31 04:15:31;;;;;;;7.65;3.33;;;;;;;;;;5052692;28;20483;-66
2023/05/31 04:17:58;;;;;;;8.60;3.30;;;;;;;;;;5052949;28;20056;-66
2023/05/31 04:20:25;;;;;;;6.47;3.60;;;;;;;;;;5052559;28;20056;-66
2023/05/31 04:22:53;;;;;;;12.40;3.42;;;;;;;;;;5052539;28;20053;-66
2023/05/31 04:25:19;;;;;;;5.53;3.20;;;;;;;;;;5053119;28;20145;-66
2023/05/31 04:27:47;;;;;;;5.25;3.13;;;;;;;;;;5051586;28;20053;-66
2023/05/31 04:30:14;;;;;;;5.97;3.28;;;;;;;;;;5052407;28;20114;-66
2023/05/31 04:32:40;;;;;;;5.20;2.85;;;;;;;;;;5050768;28;20494;-66
2023/05/31 04:35:08;;;;;;;7.18;3.30;;;;;;;;;;5052763;28;20049;-65
2023/05/31 04:37:36;;;;;;;8.98;3.72;;;;;;;;;;5052025;28;20055;-66
2023/05/31 04:40:05;;;;;;;7.72;3.53;;;;;;;;;;5051845;28;20049;-66
2023/05/31 04:42:32;;;;;;;7.10;4.43;;;;;;;;;;5051975;28;20049;-66
2023/05/31 04:45:01;;;;;;;8.07;3.15;;;;;;;;;;5052859;28;20417;-68
2023/05/31 04:47:28;;;;;;;8.88;4.20;;;;;;;;;;5052387;28;20053;-68
2023/05/31 04:49:56;;;;;;;8.65;3.22;;;;;;;;;;5052901;28;20056;-68
2023/05/31 04:52:26;;;;;;;9.07;3.20;;;;;;;;;;5052496;28;20444;-68
2023/05/31 04:54:54;;;;;;;8.38;3.50;;;;;;;;;;5052703;28;20076;-68
2023/05/31 04:57:20;;;;;;;8.38;3.47;;;;;;;;;;5052294;28;20490;-68
2023/05/31 04:59:47;;;;;;;7.00;3.30;;;;;;;;;;5052540;28;20056;-68
2023/05/31 05:02:14;;;;;;;6.38;3.08;;;;;;;;;;5052401;28;20057;-68
2023/05/31 05:04:40;;;;;;;10.32;3.30;;;;;;;;;;5052106;28;20583;-68
2023/05/31 05:07:07;;;;;;;12.77;3.60;;;;;;;;;;5052330;28;20064;-68
2023/05/31 05:09:34;;;;;;;7.20;3.92;;;;;;;;;;5051801;28;20045;-68
2023/05/31 05:12:02;;;;;;;9.07;3.75;;;;;;;;;;5052139;28;20049;-68
2023/05/31 05:14:29;;;;;;;7.50;4.25;;;;;;;;;;5052378;28;20049;-67
2023/05/31 05:16:56;;;;;;;5.50;2.90;;;;;;;;;;5052654;28;20045;-67
2023/05/31 05:19:22;;;;;;;4.97;3.13;;;;;;;;;;5051518;28;20102;-67
2023/05/31 05:21:49;;;;;;;9.98;3.67;;;;;;;;;;5051642;28;20140;-67
2023/05/31 05:24:16;;;;;;;5.25;3.38;;;;;;;;;;5052072;28;20059;-67
2023/05/31 05:26:42;;;;;;;7.72;3.35;;;;;;;;;;5051777;28;20079;-67
2023/05/31 05:29:10;;;;;;;5.05;3.30;;;;;;;;;;5051646;28;20060;-68
2023/05/31 05:31:37;;;;;;;8.52;3.63;;;;;;;;;;5052680;28;20483;-68
2023/05/31 05:34:04;;;;;;;8.88;3.35;;;;;;;;;;5052175;28;20040;-68
2023/05/31 05:36:30;;;;;;;8.05;3.05;;;;;;;;;;5051938;28;20128;-68
2023/05/31 05:39:03;;;;;;;5.03;3.03;;;;;;;;;;5051962;28;20083;-68
2023/05/31 05:41:30;;;;;;;6.15;2.88;;;;;;;;;;5051672;28;20395;-69
2023/05/31 05:43:56;;;;;;;6.70;3.70;;;;;;;;;;5051523;28;20405;-68
2023/05/31 05:46:24;;;;;;;7.15;3.22;;;;;;;;;;5051691;28;20048;-68
2023/05/31 05:48:54;;;;;;;5.22;3.50;;;;;;;;;;5051811;28;20406;-68
2023/05/31 05:51:20;;;;;;;11.40;3.33;;;;;;;;;;5051236;28;20128;-69
2023/05/31 05:53:47;;;;;;;8.23;3.65;;;;;;;;;;5051658;28;20041;-69
2023/05/31 05:56:17;;;;;;;7.30;3.65;;;;;;;;;;5051179;28;20486;-69
2023/05/31 05:58:44;;;;;;;9.38;3.83;;;;;;;;;;5051547;28;20076;-69
2023/05/31 06:01:12;;;;;;;7.78;3.17;;;;;;;;;;5050874;28;20052;-69
2023/05/31 06:03:40;;;;;;;6.93;3.75;;;;;;;;;;5050945;28;20102;-69
2023/05/31 06:06:07;;;;;;;7.47;3.03;;;;;;;;;;5050946;28;20052;-69
2023/05/31 06:08:33;;;;;;;6.80;3.00;;;;;;;;;;5051372;28;20052;-69
2023/05/31 06:11:00;;;;;;;8.02;3.47;;;;;;;;;;5050859;28;20052;-69
2023/05/31 06:13:27;;;;;;;8.10;3.50;;;;;;;;;;5051367;28;20494;-69
2023/05/31 06:15:54;;;;;;;6.60;3.20;;;;;;;;;;5050825;28;20049;-69
2023/05/31 06:18:20;;;;;;;6.00;3.13;;;;;;;;;;5050726;28;20076;-69
2023/05/31 06:20:48;;;;;;;3.92;2.70;;;;;;;;;;5051580;28;20049;-69
2023/05/31 06:23:15;;;;;;;7.18;3.05;;;;;;;;;;5051202;28;20471;-69
2023/05/31 06:25:41;;;;;;;7.05;3.30;;;;;;;;;;5051518;28;20479;-69
2023/05/31 06:28:08;;;;;;;6.97;3.15;;;;;;;;;;5050879;28;20060;-69
2023/05/31 06:30:34;;;;;;;7.78;3.17;;;;;;;;;;5050143;28;20040;-69
2023/05/31 06:33:02;;;;;;;6.30;3.33;;;;;;;;;;5049003;28;20045;-69
2023/05/31 06:35:29;;;;;;;8.98;2.90;;;;;;;;;;5050278;28;20103;-69
2023/05/31 06:37:57;;;;;;;6.75;2.72;;;;;;;;;;5049501;28;20045;-69
2023/05/31 06:40:23;;;;;;;5.55;3.10;;;;;;;;;;5051094;28;20136;-69
2023/05/31 06:42:50;;;;;;;5.65;2.78;;;;;;;;;;5050669;28;20049;-69
2023/05/31 06:45:16;;;;;;;5.75;2.85;;;;;;;;;;5050709;28;20410;-65
2023/05/31 06:47:43;;;;;;;5.80;2.70;;;;;;;;;;5050323;28;20478;-65
2023/05/31 06:50:12;;;;;;;4.63;2.65;;;;;;;;;;5049049;28;20417;-66
2023/05/31 06:52:39;;;;;;;4.22;2.58;;;;;;;;;;5050006;28;20048;-66
2023/05/31 06:55:08;;;;;;;6.13;2.85;;;;;;;;;;5049302;28;20055;-66
2023/05/31 06:57:35;;;;;;;6.28;2.50;;;;;;;;;;5053175;28;20053;-66
2023/05/31 07:00:02;;;;;;;7.05;2.72;;;;;;;;;;5052993;28;20040;-65
2023/05/31 07:02:29;;;;;;;4.38;2.47;;;;;;;;;;5053632;28;20052;-65
2023/05/31 07:04:55;;;;;;;7.93;3.00;;;;;;;;;;5053533;28;20047;-65
2023/05/31 07:07:22;;;;;;;5.15;2.53;;;;;;;;;;5053362;28;20413;-66
2023/05/31 07:09:50;;;;;;;5.85;3.00;;;;;;;;;;5053376;28;20051;-65
2023/05/31 07:12:18;;;;;;;4.90;2.95;;;;;;;;;;5053198;28;20045;-65
2023/05/31 07:14:45;;;;;;;6.80;2.90;;;;;;;;;;5053769;28;20056;-66
2023/05/31 07:17:12;;;;;;;6.90;3.53;;;;;;;;;;5053210;28;20487;-66
2023/05/31 07:19:44;;;;;;;5.95;2.42;;;;;;;;;;5053648;28;20045;-66
2023/05/31 07:22:11;;;;;;;9.10;2.80;;;;;;;;;;5052362;28;20053;-66
2023/05/31 07:24:37;;;;;;;7.97;2.80;;;;;;;;;;5052406;28;20065;-66
2023/05/31 07:27:05;;;;;;;8.18;3.08;;;;;;;;;;5052171;28;20124;-66
2023/05/31 07:29:33;;;;;;;4.90;2.60;;;;;;;;;;5053889;28;20638;-66
2023/05/31 07:31:59;;;;;;;7.45;3.13;;;;;;;;;;5052844;28;20051;-65
2023/05/31 07:34:26;;;;;;;7.25;2.83;;;;;;;;;;5053477;28;20045;-66
2023/05/31 07:36:52;;;;;;;7.78;2.95;;;;;;;;;;5053480;28;20045;-66
2023/05/31 07:39:22;;;;;;;5.78;2.63;;;;;;;;;;5052702;28;20041;-65
2023/05/31 07:41:48;;;;;;;5.53;2.83;;;;;;;;;;5053113;28;20676;-66
2023/05/31 07:44:16;;;;;;;5.82;2.75;;;;;;;;;;5052667;28;20044;-66
2023/05/31 07:46:44;;;;;;;5.15;2.47;;;;;;;;;;5052965;28;20080;-65
2023/05/31 07:49:10;;;;;;;5.35;2.25;;;;;;;;;;5052484;28;20055;-66
2023/05/31 07:51:37;;;;;;;4.25;2.40;;;;;;;;;;5052347;28;20053;-65
2023/05/31 07:54:04;;;;;;;5.03;2.25;;;;;;;;;;5051978;28;20572;-65
2023/05/31 07:56:32;;;;;;;3.58;2.42;;;;;;;;;;5052960;28;20045;-68
2023/05/31 07:58:58;;;;;;;7.43;2.70;;;;;;;;;;5052732;28;20079;-69
2023/05/31 08:01:26;;;;;;;7.82;2.42;;;;;;;;;;5051492;28;20041;-68
2023/05/31 08:03:55;;;;;;;5.13;2.60;;;;;;;;;;5052916;28;20056;-68
2023/05/31 08:06:22;;;;;;;3.05;2.30;;;;;;;;;;5051488;28;20045;-68
2023/05/31 08:08:48;;;;;;;4.18;2.38;;;;;;;;;;5052145;28;20483;-68
2023/05/31 08:11:15;;;;;;;6.22;2.20;;;;;;;;;;5047703;28;20455;-67
2023/05/31 08:13:42;;;;;;;4.75;2.53;;;;;;;;;;5052193;28;20052;-67
2023/05/31 08:16:08;;;;;;;3.95;2.08;;;;;;;;;;5051508;28;20049;-67
2023/05/31 08:18:35;;;;;;;4.40;2.10;;;;;;;;;;5052121;28;20049;-67
2023/05/31 08:21:04;;;;;;;5.72;2.33;;;;;;;;;;5051303;28;20498;-67
2023/05/31 08:23:31;;;;;;;4.28;2.50;;;;;;;;;;5052356;28;20102;-67
2023/05/31 08:25:57;;;;;;;5.22;2.60;;;;;;;;;;5052471;28;20087;-67
2023/05/31 08:28:24;;;;;;;5.35;2.30;;;;;;;;;;5051746;28;20063;-67
2023/05/31 08:30:50;;;;;;;6.03;2.45;;;;;;;;;;5051781;28;20245;-67
2023/05/31 08:33:17;;;;;;;4.35;1.98;;;;;;;;;;5051660;28;20045;-67
2023/05/31 08:35:43;;;;;;;3.38;2.05;;;;;;;;;;5052310;28;20045;-67
2023/05/31 08:38:11;;;;;;;5.38;2.17;;;;;;;;;;5040318;28;20051;-69
2023/05/31 08:40:39;;;;;;;6.72;2.40;;;;;;;;;;5051234;28;20047;-68
2023/05/31 08:43:09;;;;;;;4.20;2.00;;;;;;;;;;5036793;28;20056;-68
2023/05/31 08:45:36;;;;;;;4.80;1.98;;;;;;;;;;5031666;28;20491;-68
2023/05/31 08:48:11;;;;;;;4.32;2.00;;;;;;;;;;5031437;28;20052;-68
2023/05/31 08:50:37;;;;;;;4.95;2.45;;;;;;;;;;5031053;28;20049;-69
2023/05/31 08:53:07;;;;;;;4.80;1.80;;;;;;;;;;5031906;28;20055;-68
2023/05/31 08:55:36;;;;;;;4.47;2.15;;;;;;;;;;5030972;28;20061;-68
2023/05/31 08:58:04;;;;;;;4.63;1.95;;;;;;;;;;5042197;28;20048;-68
2023/05/31 09:00:31;;;;;;;4.63;2.17;;;;;;;;;;5030642;28;20045;-69
2023/05/31 09:02:59;;;;;;;4.80;1.92;;;;;;;;;;5048741;28;20057;-69
2023/05/31 09:05:26;;;;;;;2.67;1.83;;;;;;;;;;5050746;28;20045;-68
2023/05/31 09:07:54;;;;;;;6.38;2.15;;;;;;;;;;5050762;28;20060;-69
2023/05/31 09:10:20;;;;;;;6.28;2.20;;;;;;;;;;5050274;28;20581;-68
2023/05/31 09:12:48;;;;;;;5.03;1.98;;;;;;;;;;5062751;22;20501;-72
2023/05/31 09:15:15;;;;;;;4.45;2.00;;;;;;;;;;5049915;28;20041;-73
2023/05/31 09:17:43;;;;;;;4.38;1.80;;;;;;;;;;5047508;28;20044;-72
2023/05/31 09:20:11;;;;;;;2.97;1.52;;;;;;;;;;5049948;28;20468;-72
2023/05/31 09:22:38;;;;;;;4.03;1.88;;;;;;;;;;5042115;28;20103;-73
2023/05/31 09:25:06;;;;;;;3.92;2.22;;;;;;;;;;5030226;28;20052;-74
2023/05/31 09:27:36;;;;;;;3.97;1.73;;;;;;;;;;5029730;28;20056;-72
2023/05/31 09:30:08;;;;;;;3.58;1.98;;;;;;;;;;5032784;28;20136;-72
2023/05/31 09:32:36;;;;;;;5.78;2.13;;;;;;;;;;5029939;28;20049;-73
2023/05/31 09:35:12;;;;;;;5.85;1.98;;;;;;;;;;5046404;28;20061;-74
2023/05/31 09:37:43;;;;;;;4.20;1.73;;;;;;;;;;5041566;28;20045;-73
2023/05/31 09:40:13;;;;;;;6.20;2.20;;;;;;;;;;5030796;28;20045;-73
2023/05/31 09:42:39;;;;;;;5.63;2.25;;;;;;;;;;5030550;28;20513;-73
2023/05/31 09:45:08;;;;;;;2.45;1.80;;;;;;;;;;5030490;28;20048;-72
2023/05/31 09:47:37;;;;;;;8.02;2.05;;;;;;;;;;5030385;28;20491;-73
2023/05/31 09:50:05;;;;;;;3.72;1.88;;;;;;;;;;5029577;28;20045;-73
2023/05/31 09:52:31;;;;;;;3.35;1.92;;;;;;;;;;5030652;28;20046;-72
2023/05/31 09:54:58;;;;;;;4.47;2.10;;;;;;;;;;5029680;28;20602;-73
2023/05/31 09:57:31;;;;;;;5.28;1.92;;;;;;;;;;5033218;28;20482;-73
2023/05/31 09:59:59;;;;;;;4.20;1.67;;;;;;;;;;5048698;28;20542;-72
2023/05/31 10:02:28;;;;;;;5.38;2.13;;;;;;;;;;5050283;28;20049;-73
2023/05/31 10:04:56;;;;;;;6.55;1.95;;;;;;;;;;5049260;28;20519;-72
2023/05/31 10:07:23;;;;;;;9.63;1.80;;;;;;;;;;5049644;28;20045;-72
2023/05/31 10:09:50;;;;;;;6.28;1.88;;;;;;;;;;5049152;28;20056;-74
2023/05/31 10:12:19;;;;;;;5.05;1.50;;;;;;;;;;5049744;28;20487;-73
2023/05/31 10:14:50;;;;;;;4.22;1.70;;;;;;;;;;5050314;28;20521;-72
2023/05/31 10:17:21;;;;;;;4.13;1.60;;;;;;;;;;5049685;28;20049;-73
2023/05/31 10:20:04;;;;;;;4.60;1.70;;;;;;;;;;5049583;28;20049;-72
2023/05/31 10:22:32;;;;;;;10.10;1.67;;;;;;;;;;5049622;28;20497;-73
2023/05/31 10:25:04;;;;;;;3.00;1.58;;;;;;;;;;5050082;28;20578;-73
2023/05/31 10:27:37;;;;;;;2.58;1.55;;;;;;;;;;5049741;28;20110;-72
2023/05/31 10:30:05;;;;;;;2.92;1.58;;;;;;;;;;5049845;28;20063;-73
2023/05/31 10:32:34;;;;;;;3.80;1.65;;;;;;;;;;5048859;28;20462;-72
2023/05/31 10:35:02;;;;;;;6.57;1.88;;;;;;;;;;5049946;28;20394;-73
2023/05/31 10:37:30;;;;;;;5.07;1.98;;;;;;;;;;5049241;28;20052;-73
2023/05/31 10:40:05;;;;;;;3.85;1.67;;;;;;;;;;5050125;28;20049;-74
2023/05/31 10:42:46;;;;;;;4.47;1.70;;;;;;;;;;5049341;28;20079;-74
2023/05/31 10:45:16;;;;;;;2.90;1.67;;;;;;;;;;5049375;28;20045;-73
2023/05/31 10:47:50;;;;;;;4.03;1.80;;;;;;;;;;5049877;28;20478;-72
2023/05/31 10:50:21;;;;;;;5.63;1.85;;;;;;;;;;5049600;28;20045;-73
2023/05/31 10:52:52;;;;;;;4.40;1.58;;;;;;;;;;5049188;28;20045;-73
2023/05/31 10:55:20;;;;;;;3.08;1.60;;;;;;;;;;5049162;28;20438;-73
2023/05/31 10:57:50;;;;;;;2.30;1.42;;;;;;;;;;5048837;28;20049;-73
2023/05/31 11:00:20;;;;;;;3.80;1.50;;;;;;;;;;5049185;28;20107;-73
2023/05/31 11:02:49;;;;;;;2.25;1.52;;;;;;;;;;5046805;28;20140;-73
2023/05/31 11:05:21;;;;;;;1.88;1.60;;;;;;;;;;5048556;28;20060;-73
2023/05/31 11:07:48;;;;;;;7.30;1.55;;;;;;;;;;5047106;28;20045;-72
2023/05/31 11:10:26;;;;;;;6.63;1.88;;;;;;;;;;5047347;28;20104;-73
2023/05/31 11:12:52;;;;;;;2.88;1.30;;;;;;;;;;5049103;28;20052;-73
2023/05/31 11:15:19;;;;;;;3.75;1.80;;;;;;;;;;5041325;28;20069;-73
2023/05/31 11:17:56;;;;;;;4.85;1.63;;;;;;;;;;5035892;28;20045;-72
2023/05/31 11:20:27;;;;;;;3.25;1.85;;;;;;;;;;5046943;28;20418;-73
2023/05/31 11:23:27;;;;;;;4.68;1.88;;;;;;;;;;5048915;28;20265;-72
2023/05/31 11:26:18;;;;;;;2.30;1.38;;;;;;;;;;5048300;28;20059;-74
2023/05/31 11:29:00;;;;;;;7.78;2.22;;;;;;;;;;5048385;28;20057;-73
2023/05/31 11:32:01;;;;;;;3.67;1.92;;;;;;;;;;5047360;28;20445;-73
2023/05/31 11:34:33;;;;;;;4.85;2.03;;;;;;;;;;5046758;28;20140;-73
2023/05/31 11:37:03;;;;;;;5.35;2.00;;;;;;;;;;5048006;28;20124;-74
2023/05/31 11:39:30;;;;;;;4.10;1.90;;;;;;;;;;5048560;28;20056;-74
2023/05/31 11:41:57;;;;;;;6.32;1.95;;;;;;;;;;5049244;28;20045;-74
2023/05/31 11:44:29;;;;;;;5.03;1.73;;;;;;;;;;5053692;28;20059;-74
2023/05/31 11:47:02;;;;;;;6.03;2.25;;;;;;;;;;5053222;28;20552;-74
2023/05/31 11:49:30;;;;;;;5.72;2.20;;;;;;;;;;5052078;28;20390;-72
2023/05/31 11:51:57;;;;;;;2.80;2.10;;;;;;;;;;5053424;28;20487;-75
2023/05/31 11:54:30;;;;;;;4.35;1.73;;;;;;;;;;5052832;28;20048;-74
2023/05/31 11:56:59;;;;;;;5.03;1.60;;;;;;;;;;5053358;28;20049;-73
2023/05/31 11:59:27;;;;;;;3.88;1.75;;;;;;;;;;5052825;28;20040;-73
2023/05/31 12:01:58;;;;;;;4.07;1.80;;;;;;;;;;5053167;28;20449;-72
2023/05/31 12:04:29;;;;;;;3.70;1.85;;;;;;;;;;5053182;28;20084;-72
2023/05/31 12:06:56;;;;;;;4.55;1.90;;;;;;;;;;5052784;28;20095;-72
2023/05/31 12:09:24;;;;;;;6.93;1.92;;;;;;;;;;5052484;28;20045;-73
2023/05/31 12:11:52;;;;;;;3.78;1.95;;;;;;;;;;5052335;28;20462;-72
2023/05/31 12:14:19;;;;;;;4.03;1.95;;;;;;;;;;5052460;28;20075;-72
2023/05/31 12:16:49;;;;;;;3.50;1.90;;;;;;;;;;5052321;28;20051;-73
2023/05/31 12:19:16;;;;;;;4.88;2.08;;;;;;;;;;5052333;28;20044;-73
2023/05/31 12:21:42;;;;;;;4.80;1.58;;;;;;;;;;5052250;28;20045;-73
2023/05/31 12:24:12;;;;;;;3.50;1.80;;;;;;;;;;5052707;28;20053;-73
2023/05/31 12:26:39;;;;;;;2.50;1.50;;;;;;;;;;5052005;28;20049;-72
2023/05/31 12:29:06;;;;;;;2.92;1.70;;;;;;;;;;5052390;28;20045;-74
2023/05/31 12:31:36;;;;;;;2.60;1.67;;;;;;;;;;5051776;28;20049;-72
2023/05/31 12:34:07;;;;;;;3.67;1.90;;;;;;;;;;5052757;28;20049;-75
2023/05/31 12:36:47;;;;;;;5.88;1.80;;;;;;;;;;5052105;28;20091;-75
2023/05/31 12:39:19;;;;;;;6.13;1.80;;;;;;;;;;5052345;28;20041;-73
2023/05/31 12:41:47;;;;;;;5.00;1.95;;;;;;;;;;5051676;28;20162;-72
2023/05/31 12:44:16;;;;;;;3.55;1.90;;;;;;;;;;5052671;28;20045;-72
2023/05/31 12:46:44;;;;;;;4.32;1.70;;;;;;;;;;5052114;28;20049;-73
2023/05/31 12:49:19;;;;;;;3.10;1.60;;;;;;;;;;5052925;28;20491;-73
2023/05/31 12:51:46;;;;;;;3.38;2.38;;;;;;;;;;5051556;28;20045;-73
2023/05/31 12:54:13;;;;;;;3.08;1.50;;;;;;;;;;5050916;28;20045;-73
2023/05/31 12:56:40;;;;;;;3.70;1.80;;;;;;;;;;5051809;28;20425;-73
2023/05/31 12:59:08;;;;;;;4.47;1.65;;;;;;;;;;5052239;28;20060;-73
2023/05/31 13:01:38;;;;;;;5.50;1.80;;;;;;;;;;5051757;28;20049;-73
2023/05/31 13:04:05;;;;;;;2.70;1.40;;;;;;;;;;5052269;28;20048;-73
2023/05/31 13:06:31;;;;;;;4.88;1.80;;;;;;;;;;5051309;28;20049;-74
2023/05/31 13:08:58;;;;;;;2.45;1.80;;;;;;;;;;5051597;28;20466;-73
2023/05/31 13:11:25;;;;;;;2.30;1.45;;;;;;;;;;5051367;28;20067;-73
2023/05/31 13:13:51;;;;;;;3.35;1.40;;;;;;;;;;5051652;28;20386;-74
2023/05/31 13:16:18;;;;;;;3.75;1.55;;;;;;;;;;5051696;28;20045;-73
2023/05/31 13:18:46;;;;;;;4.55;1.60;;;;;;;;;;5051274;28;20516;-73
2023/05/31 13:21:13;;;;;;;3.80;1.90;;;;;;;;;;5051085;28;20041;-74
2023/05/31 13:23:39;;;;;;;4.95;1.50;;;;;;;;;;5051053;28;20057;-73
2023/05/31 13:26:06;;;;;;;3.10;1.88;;;;;;;;;;5051564;28;20045;-73
2023/05/31 13:28:32;;;;;;;4.90;1.63;;;;;;;;;;5051200;28;20071;-73
2023/05/31 13:30:59;;;;;;;3.58;1.40;;;;;;;;;;5051203;28;20044;-73
2023/05/31 13:33:28;;;;;;;4.50;1.40;;;;;;;;;;5051036;28;20399;-73
2023/05/31 13:35:56;;;;;;;3.28;1.20;;;;;;;;;;5051068;28;20052;-74
2023/05/31 13:38:23;;;;;;;3.78;1.40;;;;;;;;;;5050745;28;20102;-73
2023/05/31 13:40:50;;;;;;;4.43;2.15;;;;;;;;;;5050636;28;20057;-73
2023/05/31 13:43:17;;;;;;;2.60;1.40;;;;;;;;;;5051099;28;20495;-73
2023/05/31 13:45:44;;;;;;;3.42;1.50;;;;;;;;;;5050788;28;20049;-73
2023/05/31 13:48:13;;;;;;;3.83;1.60;;;;;;;;;;5050906;28;20053;-73
2023/05/31 13:50:39;;;;;;;4.05;1.27;;;;;;;;;;5050208;28;20053;-73
2023/05/31 13:53:08;;;;;;;5.85;1.60;;;;;;;;;;5051019;28;20045;-73
2023/05/31 13:55:34;;;;;;;2.88;1.30;;;;;;;;;;5050452;28;20052;-72
2023/05/31 13:58:01;;;;;;;2.95;1.30;;;;;;;;;;5050617;28;20045;-72
2023/05/31 14:00:29;;;;;;;5.10;1.40;;;;;;;;;;5049971;28;20053;-73
2023/05/31 14:02:55;;;;;;;3.42;1.20;;;;;;;;;;5050635;28;20045;-73
2023/05/31 14:05:22;;;;;;;3.35;1.40;;;;;;;;;;5050465;28;20413;-73
2023/05/31 14:07:49;;;;;;;2.72;1.40;;;;;;;;;;5050632;28;20045;-73
2023/05/31 14:10:16;;;;;;;1.77;1.30;;;;;;;;;;5049905;28;20056;-73
2023/05/31 14:12:43;;;;;;;2.42;1.50;;;;;;;;;;5050580;28;20410;-73
2023/05/31 14:15:10;;;;;;;2.35;1.30;;;;;;;;;;5050461;28;20172;-73
2023/05/31 14:17:37;;;;;;;3.53;1.50;;;;;;;;;;5050156;28;20056;-72
2023/05/31 14:20:04;;;;;;;3.05;1.30;;;;;;;;;;5049955;28;20045;-73
2023/05/31 14:22:31;;;;;;;2.45;1.50;;;;;;;;;;5050273;28;20143;-73
2023/05/31 14:24:58;;;;;;;2.75;1.40;;;;;;;;;;5050656;28;20064;-73
2023/05/31 14:27:26;;;;;;;1.75;1.30;;;;;;;;;;5049891;28;20045;-73
2023/05/31 14:29:52;;;;;;;2.88;1.25;;;;;;;;;;5049692;28;20418;-73
2023/05/31 14:32:19;;;;;;;4.15;1.30;;;;;;;;;;5050032;28;20052;-73
2023/05/31 14:34:45;;;;;;;3.70;1.65;;;;;;;;;;5050129;28;20458;-73
2023/05/31 14:37:12;;;;;;;3.10;1.40;;;;;;;;;;5049789;28;20103;-73
2023/05/31 14:39:40;;;;;;;3.50;1.25;;;;;;;;;;5049744;28;20072;-74
2023/05/31 14:42:07;;;;;;;2.95;1.30;;;;;;;;;;5050298;28;20517;-73
2023/05/31 14:44:35;;;;;;;4.13;1.30;;;;;;;;;;5049870;28;20045;-72
2023/05/31 14:47:02;;;;;;;4.72;1.25;;;;;;;;;;5049421;28;20045;-72
2023/05/31 14:49:29;;;;;;;4.50;1.50;;;;;;;;;;5050070;28;20041;-73